createdAt,value
2023-01-04T00:01:23.513Z,5.73
2023-01-04T00:03:51.805Z,5.23
2023-01-04T00:06:21.671Z,4.53
2023-01-04T00:08:49.782Z,6.50
2023-01-04T00:11:19.752Z,6.27
2023-01-04T00:13:49.272Z,4.30
2023-01-04T00:16:19.061Z,3.23
2023-01-04T00:18:47.614Z,4.20
2023-01-04T00:21:17.304Z,5.27
2023-01-04T00:23:48.197Z,5.00
2023-01-04T00:26:17.525Z,4.00
2023-01-04T00:28:51.723Z,4.50
2023-01-04T00:31:22.984Z,2.33
2023-01-04T00:33:51.217Z,3.90
2023-01-04T00:36:19.251Z,5.47
2023-01-04T00:39:08.013Z,5.60
2023-01-04T00:44:26.482Z,4.53
2023-01-04T00:46:54.731Z,4.63
2023-01-04T00:49:22.827Z,4.37
2023-01-04T00:51:51.006Z,5.07
2023-01-04T00:54:21.293Z,4.27
2023-01-04T00:56:49.642Z,5.53
2023-01-04T00:59:21.001Z,4.27
2023-01-04T01:01:49.663Z,6.17
2023-01-04T01:04:20.370Z,3.80
2023-01-04T01:06:49.328Z,4.50
2023-01-04T01:09:17.663Z,6.50
2023-01-04T01:11:47.043Z,7.40
2023-01-04T01:14:18.332Z,3.17
2023-01-04T01:16:56.454Z,5.40
2023-01-04T01:19:25.735Z,3.90
2023-01-04T01:21:53.759Z,2.53
2023-01-04T01:24:22.273Z,4.33
2023-01-04T01:26:51.677Z,4.70
2023-01-04T01:29:19.782Z,4.10
2023-01-04T01:31:47.918Z,5.33
2023-01-04T01:34:16.080Z,6.00
2023-01-04T01:36:44.099Z,4.47
2023-01-04T01:39:12.131Z,4.30
2023-01-04T01:41:40.184Z,5.33
2023-01-04T01:44:41.422Z,4.63
2023-01-04T01:47:15.078Z,5.93
2023-01-04T01:49:44.681Z,5.63
2023-01-04T01:52:16.862Z,5.80
2023-01-04T01:54:48.093Z,3.37
2023-01-04T01:57:20.566Z,4.87
2023-01-04T01:59:51.291Z,5.67
2023-01-04T02:02:20.836Z,5.23
2023-01-04T02:04:51.757Z,4.43
2023-01-04T02:07:21.706Z,6.13
2023-01-04T02:09:51.240Z,7.60
2023-01-04T02:12:19.376Z,2.93
2023-01-04T02:14:49.505Z,3.20
2023-01-04T02:17:25.573Z,3.30
2023-01-04T02:20:25.194Z,2.33
2023-01-04T02:23:29.414Z,2.17
2023-01-04T02:26:35.416Z,4.43
2023-01-04T02:29:34.711Z,3.33
2023-01-04T02:32:07.371Z,4.47
2023-01-04T02:34:44.757Z,4.90
2023-01-04T02:37:19.922Z,4.43
2023-01-04T02:39:56.235Z,2.63
2023-01-04T02:42:47.531Z,4.77
2023-01-04T02:45:18.433Z,5.43
2023-01-04T02:48:06.733Z,2.57
2023-01-04T02:50:37.427Z,3.00
2023-01-04T02:53:11.132Z,3.73
2023-01-04T02:55:48.280Z,2.33
2023-01-04T02:58:33.403Z,2.97
2023-01-04T03:01:25.820Z,7.10
2023-01-04T03:04:24.482Z,5.00
2023-01-04T03:06:58.751Z,4.83
2023-01-04T03:09:32.755Z,6.40
2023-01-04T03:12:23.217Z,2.97
2023-01-04T03:14:54.089Z,3.67
2023-01-04T03:17:25.770Z,4.13
2023-01-04T03:19:57.917Z,2.33
2023-01-04T03:22:50.994Z,5.07
2023-01-04T03:25:40.802Z,4.80
2023-01-04T03:28:32.163Z,4.07
2023-01-04T03:31:34.546Z,5.00
2023-01-04T03:34:20.142Z,5.57
2023-01-04T03:37:00.429Z,6.17
2023-01-04T03:39:57.849Z,8.00
2023-01-04T03:42:50.480Z,5.87
2023-01-04T03:45:39.683Z,4.60
2023-01-04T03:48:31.531Z,4.17
2023-01-04T03:51:08.205Z,5.37
2023-01-04T03:53:44.351Z,5.50
2023-01-04T03:56:13.806Z,5.27
2023-01-04T03:58:42.061Z,3.57
2023-01-04T04:01:10.479Z,2.70
2023-01-04T04:03:55.965Z,4.57
2023-01-04T04:06:41.403Z,6.20
2023-01-04T04:09:10.771Z,5.67
2023-01-04T04:11:38.793Z,5.20
2023-01-04T04:14:06.837Z,5.47
2023-01-04T04:16:34.875Z,5.33
2023-01-04T04:19:08.208Z,3.57
2023-01-04T04:21:36.950Z,2.60
2023-01-04T04:24:05.592Z,6.07
2023-01-04T04:26:34.989Z,3.73
2023-01-04T04:29:03.189Z,5.13
2023-01-04T04:31:31.326Z,6.28
2023-01-04T04:33:59.361Z,3.93
2023-01-04T04:36:27.393Z,2.83
2023-01-04T04:38:55.430Z,4.17
2023-01-04T04:41:41.575Z,4.40
2023-01-04T04:44:13.144Z,6.57
2023-01-04T04:46:41.953Z,4.93
2023-01-04T04:49:10.220Z,5.53
2023-01-04T04:51:38.811Z,2.33
2023-01-04T04:54:07.547Z,4.27
2023-01-04T04:56:37.125Z,3.57
2023-01-04T04:59:06.319Z,3.13
2023-01-04T05:01:36.181Z,4.60
2023-01-04T05:04:04.799Z,4.23
2023-01-04T05:06:33.119Z,5.67
2023-01-04T05:09:01.312Z,1.97
2023-01-04T05:11:55.414Z,3.63
2023-01-04T05:14:23.786Z,4.20
2023-01-04T05:16:53.236Z,4.47
2023-01-04T05:19:21.269Z,2.93
2023-01-04T05:21:49.267Z,3.07
2023-01-04T05:24:17.295Z,1.83
2023-01-04T05:26:45.296Z,3.17
2023-01-04T05:29:33.329Z,3.53
2023-01-04T05:32:01.791Z,2.67
2023-01-04T05:34:29.852Z,4.10
2023-01-04T05:36:57.861Z,2.80
2023-01-04T05:39:25.843Z,2.23
2023-01-04T05:42:13.405Z,3.17
2023-01-04T05:44:41.404Z,3.70
2023-01-04T05:47:14.889Z,5.43
2023-01-04T05:49:43.444Z,2.30
2023-01-04T05:52:11.984Z,2.10
2023-01-04T05:54:40.282Z,3.97
2023-01-04T05:57:08.449Z,3.30
2023-01-04T05:59:41.497Z,2.17
2023-01-04T06:02:16.220Z,3.93
2023-01-04T06:04:44.445Z,2.87
2023-01-04T06:07:12.465Z,2.37
2023-01-04T06:09:40.650Z,2.23
2023-01-04T06:12:09.110Z,4.00
2023-01-04T06:14:37.636Z,2.30
2023-01-04T06:17:06.145Z,2.27
2023-01-04T06:19:36.087Z,3.00
2023-01-04T06:22:04.173Z,4.53
2023-01-04T06:24:34.041Z,3.17
2023-01-04T06:27:02.286Z,2.67
2023-01-04T06:29:30.293Z,3.17
2023-01-04T06:31:58.426Z,3.83
2023-01-04T06:34:30.856Z,3.27
2023-01-04T06:37:00.936Z,3.23
2023-01-04T06:39:29.019Z,3.77
2023-01-04T06:42:03.765Z,3.73
2023-01-04T06:44:34.174Z,4.83
2023-01-04T06:47:02.224Z,3.73
2023-01-04T06:49:30.256Z,4.37
2023-01-04T06:51:59.731Z,4.80
2023-01-04T06:54:28.247Z,5.97
2023-01-04T06:56:56.273Z,5.00
2023-01-04T06:59:24.262Z,5.47
2023-01-04T07:01:53.085Z,5.50
2023-01-04T07:04:21.407Z,6.23
2023-01-04T07:06:49.426Z,5.23
2023-01-04T07:09:19.048Z,6.17
2023-01-04T07:11:47.072Z,6.50
2023-01-04T07:14:15.081Z,6.77
2023-01-04T07:16:43.201Z,7.27
2023-01-04T07:19:11.320Z,7.70
2023-01-04T07:21:39.307Z,8.27
2023-01-04T07:24:07.328Z,7.43
2023-01-04T07:26:36.713Z,7.70
2023-01-04T07:29:17.300Z,8.97
2023-01-04T07:31:47.557Z,8.60
2023-01-04T07:34:16.297Z,9.20
2023-01-04T07:36:44.481Z,10.73
2023-01-04T07:39:12.829Z,10.17
2023-01-04T07:41:42.855Z,10.87
2023-01-04T07:44:12.455Z,10.70
2023-01-04T07:46:40.958Z,11.43
2023-01-04T07:49:16.697Z,11.53
2023-01-04T07:51:46.232Z,11.17
2023-01-04T07:54:14.754Z,10.93
2023-01-04T07:56:44.510Z,11.73
2023-01-04T07:59:14.180Z,11.60
2023-01-04T08:01:42.542Z,11.70
2023-01-04T08:04:12.923Z,11.93
2023-01-04T08:06:42.763Z,10.87
2023-01-04T08:09:12.406Z,10.07
2023-01-04T08:11:40.579Z,10.30
2023-01-04T08:14:10.135Z,10.30
2023-01-04T08:16:39.852Z,9.73
2023-01-04T08:19:12.305Z,9.53
2023-01-04T08:21:40.445Z,8.60
2023-01-04T08:24:10.246Z,9.00
2023-01-04T08:26:38.304Z,7.93
2023-01-04T08:29:06.325Z,9.20
2023-01-04T08:31:35.806Z,7.83
2023-01-04T08:34:06.323Z,7.30
2023-01-04T08:36:36.444Z,7.10
2023-01-04T08:39:06.747Z,7.10
2023-01-04T08:44:38.985Z,6.23
2023-01-04T08:47:08.431Z,6.43
2023-01-04T08:49:36.428Z,6.20
2023-01-04T08:52:04.674Z,6.73
2023-01-04T08:54:33.511Z,5.57
2023-01-04T08:57:01.516Z,5.63
2023-01-04T08:59:29.847Z,5.63
2023-01-04T09:02:04.909Z,5.30
2023-01-04T09:04:35.290Z,4.90
2023-01-04T09:07:03.796Z,4.40
2023-01-04T09:09:32.039Z,4.40
2023-01-04T09:12:00.501Z,4.13
2023-01-04T09:14:28.667Z,4.17
2023-01-04T09:16:56.892Z,4.47
2023-01-04T09:19:24.986Z,5.07
2023-01-04T09:21:54.403Z,5.20
2023-01-04T09:24:22.658Z,5.43
2023-01-04T09:26:51.009Z,6.17
2023-01-04T09:29:19.142Z,5.27
2023-01-04T09:31:47.557Z,5.57
2023-01-04T09:34:17.320Z,5.70
2023-01-04T09:36:46.579Z,5.20
2023-01-04T09:39:22.511Z,5.00
2023-01-04T09:41:56.540Z,4.40
2023-01-04T09:45:21.352Z,4.70
2023-01-04T09:47:34.229Z,5.00
2023-01-04T09:50:07.003Z,5.03
2023-01-04T09:52:47.642Z,4.57
2023-01-04T09:55:38.250Z,4.20
2023-01-04T09:58:17.490Z,4.47
2023-01-04T10:00:47.858Z,4.73
2023-01-04T10:03:19.948Z,4.40
2023-01-04T10:05:48.064Z,4.30
2023-01-04T10:08:18.279Z,3.90
2023-01-04T10:11:00.208Z,3.70
2023-01-04T10:13:45.636Z,3.33
2023-01-04T10:16:30.499Z,3.97
2023-01-04T10:19:50.459Z,3.63
2023-01-04T10:22:11.366Z,4.07
2023-01-04T10:24:53.474Z,3.90
2023-01-04T10:27:30.850Z,3.87
2023-01-04T10:30:11.831Z,3.70
2023-01-04T10:32:43.271Z,3.50
2023-01-04T10:35:21.421Z,3.50
2023-01-04T10:37:53.536Z,2.93
2023-01-04T10:40:21.695Z,2.93
2023-01-04T10:42:57.961Z,2.80
2023-01-04T10:45:33.853Z,2.93
2023-01-04T10:48:09.444Z,3.23
2023-01-04T10:50:45.560Z,2.90
2023-01-04T10:53:19.654Z,3.10
2023-01-04T10:56:25.915Z,2.90
2023-01-04T10:58:47.749Z,2.93
2023-01-04T11:01:23.615Z,3.47
2023-01-04T11:03:56.479Z,3.27
2023-01-04T11:06:28.142Z,3.30
2023-01-04T11:09:00.855Z,3.53
2023-01-04T11:11:33.462Z,2.97
2023-01-04T11:14:04.003Z,3.20
2023-01-04T11:16:33.212Z,3.10
2023-01-04T11:19:04.239Z,2.80
2023-01-04T11:21:39.837Z,2.60
2023-01-04T11:24:31.094Z,2.83
2023-01-04T11:26:59.395Z,2.90
2023-01-04T11:29:34.008Z,2.97
2023-01-04T11:32:07.379Z,2.50
2023-01-04T11:34:47.154Z,2.90
2023-01-04T11:37:33.835Z,2.47
2023-01-04T11:40:21.392Z,2.70
2023-01-04T11:42:51.420Z,2.50
2023-01-04T11:45:27.508Z,2.50
2023-01-04T11:47:57.135Z,2.10
2023-01-04T11:50:40.114Z,2.37
2023-01-04T11:53:29.957Z,2.30
2023-01-04T11:56:16.417Z,1.90
2023-01-04T11:58:46.222Z,1.90
2023-01-04T12:01:24.650Z,1.97
2023-01-04T12:03:53.379Z,1.50
2023-01-04T12:06:25.905Z,1.40
2023-01-04T12:08:53.969Z,1.40
2023-01-04T12:11:29.573Z,1.40
2023-01-04T12:13:59.527Z,2.47
2023-01-04T12:16:43.195Z,1.60
2023-01-04T12:19:15.943Z,1.70
2023-01-04T12:21:46.418Z,1.83
2023-01-04T12:24:19.995Z,1.00
2023-01-04T12:26:48.546Z,1.20
2023-01-04T12:29:50.381Z,2.03
2023-01-04T12:32:42.265Z,1.43
2023-01-04T12:36:01.647Z,0.90
2023-01-04T12:38:57.796Z,2.43
2023-01-04T12:41:41.703Z,1.53
2023-01-04T12:44:43.671Z,1.37
2023-01-04T12:47:58.938Z,1.37
2023-01-04T12:50:29.435Z,2.37
2023-01-04T12:53:29.277Z,2.30
2023-01-04T12:55:56.501Z,1.30
2023-01-04T12:59:23.755Z,2.30
2023-01-04T13:01:31.836Z,1.43
2023-01-04T13:04:06.191Z,1.97
2023-01-04T13:06:43.595Z,3.90
2023-01-04T13:09:23.938Z,3.03
2023-01-04T13:12:13.451Z,1.40
2023-01-04T13:14:45.416Z,2.90
2023-01-04T13:17:19.789Z,3.73
2023-01-04T13:19:50.037Z,4.10
2023-01-04T13:22:28.400Z,3.93
2023-01-04T13:24:58.869Z,3.70
2023-01-04T13:27:28.109Z,2.83
2023-01-04T13:29:56.654Z,3.20
2023-01-04T13:32:26.999Z,4.60
2023-01-04T13:34:59.615Z,2.70
2023-01-04T13:37:32.518Z,4.43
2023-01-04T13:40:19.040Z,4.07
2023-01-04T13:42:50.200Z,5.27
2023-01-04T13:45:49.885Z,6.07
2023-01-04T13:48:22.778Z,5.03
2023-01-04T13:51:03.330Z,3.13
2023-01-04T13:53:33.301Z,2.83
2023-01-04T13:56:03.255Z,5.23
2023-01-04T13:58:32.863Z,4.40
2023-01-04T14:01:04.313Z,7.23
2023-01-04T14:03:36.907Z,3.87
2023-01-04T14:06:18.333Z,9.33
2023-01-04T14:08:53.072Z,6.20
2023-01-04T14:11:42.061Z,7.40
2023-01-04T14:14:25.231Z,6.17
2023-01-04T14:17:08.133Z,3.50
2023-01-04T14:19:49.557Z,9.40
2023-01-04T14:22:38.324Z,4.30
2023-01-04T14:25:48.644Z,6.77
2023-01-04T14:28:48.666Z,9.23
2023-01-04T14:31:34.087Z,5.90
2023-01-04T14:34:13.167Z,5.00
2023-01-04T14:36:43.008Z,6.27
2023-01-04T14:39:22.209Z,8.13
2023-01-04T14:41:57.423Z,5.43
2023-01-04T14:44:28.309Z,6.40
2023-01-04T14:46:57.720Z,7.37
2023-01-04T14:49:28.265Z,6.60
2023-01-04T14:51:57.582Z,7.37
2023-01-04T14:54:28.398Z,8.37
2023-01-04T14:56:57.679Z,8.17
2023-01-04T14:59:26.710Z,7.07
2023-01-04T15:01:56.566Z,7.10
2023-01-04T15:04:25.431Z,8.63
2023-01-04T15:06:56.307Z,10.03
2023-01-04T15:09:25.944Z,7.97
2023-01-04T15:11:54.162Z,10.40
2023-01-04T15:14:22.614Z,9.60
2023-01-04T15:16:50.747Z,11.73
2023-01-04T15:19:18.833Z,15.87
2023-01-04T15:21:46.858Z,13.03
2023-01-04T15:24:14.896Z,10.23
2023-01-04T15:26:44.539Z,11.77
2023-01-04T15:29:12.711Z,8.90
2023-01-04T15:31:42.286Z,11.00
2023-01-04T15:34:11.164Z,13.87
2023-01-04T15:36:41.018Z,13.40
2023-01-04T15:39:12.627Z,9.57
2023-01-04T15:41:58.107Z,8.00
2023-01-04T15:44:27.723Z,9.97
2023-01-04T15:46:56.162Z,4.97
2023-01-04T15:49:24.377Z,10.83
2023-01-04T15:51:52.511Z,8.67
2023-01-04T15:54:21.857Z,8.53
2023-01-04T15:56:50.111Z,7.97
2023-01-04T15:59:18.212Z,11.03
2023-01-04T16:01:48.291Z,9.60
2023-01-04T16:04:16.503Z,10.47
2023-01-04T16:06:44.508Z,9.17
2023-01-04T16:09:12.512Z,6.97
2023-01-04T16:12:02.002Z,12.77
2023-01-04T16:14:30.283Z,7.57
2023-01-04T16:16:59.640Z,7.97
2023-01-04T16:19:27.699Z,9.20
2023-01-04T16:21:56.066Z,11.70
2023-01-04T16:25:00.073Z,9.20
2023-01-04T16:27:12.121Z,7.63
2023-01-04T16:29:40.153Z,7.70
2023-01-04T16:32:09.571Z,6.10
2023-01-04T16:34:37.801Z,9.90
2023-01-04T16:37:06.222Z,9.97
2023-01-04T16:40:05.279Z,8.73
2023-01-04T16:42:22.609Z,12.07
2023-01-04T16:44:50.652Z,8.07
2023-01-04T16:47:20.688Z,9.53
2023-01-04T16:49:52.356Z,10.27
2023-01-04T16:52:20.940Z,6.97
2023-01-04T16:54:50.286Z,7.23
2023-01-04T16:57:18.275Z,7.97
2023-01-04T16:59:46.279Z,9.40
2023-01-04T17:02:14.521Z,7.50
2023-01-04T17:04:44.044Z,15.03
2023-01-04T17:07:12.047Z,7.53
2023-01-04T17:09:41.210Z,8.23
2023-01-04T17:12:45.604Z,9.93
2023-01-04T17:17:45.467Z,11.00
2023-01-04T17:20:15.027Z,13.70
2023-01-04T17:22:43.026Z,14.17
2023-01-04T17:25:11.300Z,11.83
2023-01-04T17:27:39.318Z,13.87
2023-01-04T17:30:08.492Z,11.63
2023-01-04T17:32:36.525Z,13.53
2023-01-04T17:35:04.928Z,17.00
2023-01-04T17:37:34.339Z,15.93
2023-01-04T17:40:02.437Z,11.73
2023-01-04T17:42:33.020Z,20.60
2023-01-04T17:45:01.029Z,12.93
2023-01-04T17:47:29.120Z,16.40
2023-01-04T17:49:57.220Z,16.13
2023-01-04T17:52:30.951Z,13.90
2023-01-04T17:55:01.452Z,16.77
2023-01-04T17:57:31.105Z,15.27
2023-01-04T17:59:59.230Z,16.63
2023-01-04T18:02:27.536Z,16.47
2023-01-04T18:04:55.716Z,16.63
2023-01-04T18:07:25.345Z,14.07
2023-01-04T18:09:53.649Z,15.10
2023-01-04T18:12:23.159Z,11.67
2023-01-04T18:14:51.220Z,16.43
2023-01-04T18:17:19.368Z,13.27
2023-01-04T18:19:47.456Z,10.23
2023-01-04T18:22:15.543Z,14.47
2023-01-04T18:24:43.592Z,8.20
2023-01-04T18:27:22.539Z,10.47
2023-01-04T18:29:52.767Z,14.97
2023-01-04T18:32:21.167Z,14.53
2023-01-04T18:34:49.290Z,16.90
2023-01-04T18:37:18.603Z,11.67
2023-01-04T18:39:47.331Z,18.47
2023-01-04T18:42:15.521Z,13.83
2023-01-04T18:44:48.482Z,15.73
2023-01-04T18:47:20.201Z,12.20
2023-01-04T18:49:48.739Z,14.33
2023-01-04T18:52:17.413Z,13.20
2023-01-04T18:54:45.400Z,14.67
2023-01-04T18:57:13.656Z,14.13
2023-01-04T18:59:42.525Z,12.70
2023-01-04T19:02:16.889Z,10.90
2023-01-04T19:04:47.864Z,12.47
2023-01-04T19:07:16.395Z,10.37
2023-01-04T19:09:44.969Z,10.40
2023-01-04T19:12:14.181Z,10.47
2023-01-04T19:14:42.537Z,12.17
2023-01-04T19:17:11.224Z,15.17
2023-01-04T19:19:39.307Z,13.23
2023-01-04T19:22:08.655Z,12.80
2023-01-04T19:24:36.677Z,11.27
2023-01-04T19:27:05.218Z,13.83
2023-01-04T19:29:35.940Z,16.10
2023-01-04T19:32:04.539Z,11.27
2023-01-04T19:34:32.547Z,11.73
2023-01-04T19:37:00.701Z,15.67
2023-01-04T19:39:30.298Z,13.07
2023-01-04T19:41:58.337Z,12.93
2023-01-04T19:44:26.336Z,13.03
2023-01-04T19:46:54.384Z,9.57
2023-01-04T19:49:22.440Z,10.23
2023-01-04T19:51:51.630Z,14.80
2023-01-04T19:54:25.128Z,10.90
2023-01-04T19:56:55.711Z,13.20
2023-01-04T19:59:23.947Z,10.40
2023-01-04T20:01:52.129Z,9.53
2023-01-04T20:04:21.006Z,10.17
2023-01-04T20:06:49.219Z,10.57
2023-01-04T20:09:20.384Z,10.60
2023-01-04T20:11:48.444Z,6.77
2023-01-04T20:14:17.839Z,11.37
2023-01-04T20:16:45.897Z,10.23
2023-01-04T20:19:14.208Z,8.53
2023-01-04T20:21:42.212Z,5.63
2023-01-04T20:24:10.330Z,7.63
2023-01-04T20:26:42.340Z,7.93
2023-01-04T20:29:10.457Z,9.00
2023-01-04T20:31:45.265Z,10.43
2023-01-04T20:34:14.147Z,10.47
2023-01-04T20:36:42.205Z,8.67
2023-01-04T20:39:10.271Z,11.00
2023-01-04T20:41:59.183Z,9.17
2023-01-04T20:44:26.321Z,9.37
2023-01-04T20:46:55.760Z,13.37
2023-01-04T20:49:23.810Z,12.10
2023-01-04T20:51:51.975Z,11.67
2023-01-04T20:54:19.990Z,10.40
2023-01-04T20:56:48.047Z,11.40
2023-01-04T20:59:16.080Z,12.03
2023-01-04T21:01:46.930Z,12.20
2023-01-04T21:04:17.661Z,16.97
2023-01-04T21:06:45.719Z,15.87
2023-01-04T21:09:13.953Z,13.50
2023-01-04T21:11:42.007Z,15.73
2023-01-04T21:14:11.892Z,18.70
2023-01-04T21:16:41.337Z,21.73
2023-01-04T21:19:09.512Z,16.87
2023-01-04T21:21:39.763Z,17.83
2023-01-04T21:24:08.371Z,11.47
2023-01-04T21:26:36.398Z,15.33
2023-01-04T21:29:04.649Z,16.87
2023-01-04T21:31:32.747Z,16.27
2023-01-04T21:34:00.861Z,14.23
2023-01-04T21:36:29.785Z,18.93
2023-01-04T21:39:00.130Z,15.30
2023-01-04T21:41:28.515Z,18.80
2023-01-04T21:43:58.218Z,17.90
2023-01-04T21:46:27.022Z,16.93
2023-01-04T21:48:56.444Z,20.47
2023-01-04T21:51:24.516Z,15.60
2023-01-04T21:53:52.690Z,11.97
2023-01-04T21:56:24.916Z,17.83
2023-01-04T21:58:53.115Z,16.30
2023-01-04T22:01:23.044Z,13.87
2023-01-04T22:03:51.396Z,11.80
2023-01-04T22:06:20.591Z,9.37
2023-01-04T22:08:48.602Z,17.63
2023-01-04T22:11:17.100Z,13.17
2023-01-04T22:13:46.506Z,11.47
2023-01-04T22:16:16.471Z,11.70
2023-01-04T22:18:47.589Z,13.53
2023-01-04T22:21:17.340Z,15.00
2023-01-04T22:23:45.360Z,11.10
2023-01-04T22:26:13.409Z,17.23
2023-01-04T22:28:41.448Z,12.33
2023-01-04T22:31:13.575Z,18.33
2023-01-04T22:33:42.088Z,10.80
2023-01-04T22:36:19.149Z,12.67
2023-01-04T22:38:50.984Z,17.63
2023-01-04T22:41:21.286Z,16.03
2023-01-04T22:43:54.444Z,12.57
2023-01-04T22:46:24.341Z,12.83
2023-01-04T22:48:52.410Z,15.80
2023-01-04T22:51:21.904Z,16.23
2023-01-04T22:53:50.368Z,15.83
2023-01-04T22:56:21.925Z,19.70
2023-01-04T22:58:53.548Z,10.33
2023-01-04T23:01:26.064Z,17.13
2023-01-04T23:03:55.232Z,12.33
2023-01-04T23:06:24.974Z,13.97
2023-01-04T23:08:57.796Z,18.53
2023-01-04T23:11:27.177Z,17.77
2023-01-04T23:13:55.209Z,16.03
2023-01-04T23:16:31.905Z,13.27
2023-01-04T23:19:00.637Z,10.87
2023-01-04T23:21:28.967Z,10.80
2023-01-04T23:23:57.072Z,11.90
2023-01-04T23:26:29.211Z,11.93
2023-01-04T23:28:57.322Z,14.63
2023-01-04T23:31:28.924Z,11.20
2023-01-04T23:33:58.632Z,15.40
2023-01-04T23:36:28.710Z,11.57
2023-01-04T23:38:58.220Z,9.37
2023-01-04T23:41:44.511Z,13.97
2023-01-04T23:44:18.564Z,13.00
2023-01-04T23:46:51.278Z,12.87
2023-01-04T23:49:19.303Z,13.80
2023-01-04T23:51:47.390Z,17.40
2023-01-04T23:54:15.388Z,19.47
2023-01-04T23:56:43.477Z,15.90
2023-01-04T23:59:11.816Z,12.00
